Time;durP1;ratioP1;P1;durP2;ratioP2;P2;SDS_P1;SDS_P2;PMS_P1;PMS_P2;Temp;Humidity;BMP_temperature;BMP_pressure;BME280_temperature;BME280_humidity;BME280_pressure;Samples;Min_cycle;Max_cycle;Signal;HPM_P1;HPM_P2
2022/07/19 00:00:34;;;;;;;4.40;1.92;;;;;;;17.94;100.00;100088.98;1623160;87;21637;-71
2022/07/19 00:03:01;;;;;;;4.83;2.30;;;;;;;17.89;100.00;100093.64;1614145;88;21479;-74
2022/07/19 00:05:29;;;;;;;6.15;1.98;;;;;;;17.85;100.00;100087.17;1594002;88;21042;-67
2022/07/19 00:07:57;;;;;;;5.50;1.77;;;;;;;17.83;100.00;100091.47;1617945;88;21022;-76
2022/07/19 00:10:26;;;;;;;7.55;1.82;;;;;;;17.81;100.00;100087.64;1606451;88;21108;-74
2022/07/19 00:12:52;;;;;;;5.70;1.72;;;;;;;17.82;100.00;100083.71;1602613;88;21093;-74
2022/07/19 00:15:23;;;;;;;7.35;2.83;;;;;;;17.86;100.00;100086.60;1604603;89;21096;-72
2022/07/19 00:17:50;;;;;;;5.37;1.80;;;;;;;17.89;100.00;100087.28;1601472;89;21129;-69
2022/07/19 00:20:20;;;;;;;1.67;1.52;;;;;;;17.93;100.00;100083.98;1600738;89;21021;-75
2022/07/19 00:22:47;;;;;;;2.77;1.98;;;;;;;17.93;100.00;100083.98;1604956;87;21164;-72
2022/07/19 00:25:14;;;;;;;7.25;2.10;;;;;;;17.93;100.00;100087.38;1604948;89;21073;-74
2022/07/19 00:27:41;;;;;;;2.75;1.98;;;;;;;17.89;100.00;100088.06;1593754;89;21741;-72
2022/07/19 00:30:10;;;;;;;3.00;1.95;;;;;;;17.85;100.00;100083.57;1585189;90;21398;-74
2022/07/19 00:32:40;;;;;;;3.98;1.50;;;;;;;17.83;100.00;100087.28;1585416;90;21019;-73
2022/07/19 00:35:08;;;;;;;2.35;1.42;;;;;;;17.78;100.00;100083.36;1586066;90;21019;-74
2022/07/19 00:37:36;;;;;;;3.35;1.55;;;;;;;17.77;100.00;100088.14;1585735;90;21181;-72
2022/07/19 00:40:03;;;;;;;5.20;2.35;;;;;;;17.74;100.00;100084.69;1582530;90;21561;-74
2022/07/19 00:42:29;;;;;;;3.20;1.52;;;;;;;17.70;100.00;100087.37;1586980;90;21038;-75
2022/07/19 00:44:57;;;;;;;3.20;1.67;;;;;;;17.61;100.00;100083.34;1587060;89;21560;-76
2022/07/19 00:47:24;;;;;;;2.15;1.55;;;;;;;17.52;100.00;100080.70;1586109;90;21965;-76
2022/07/19 00:49:53;;;;;;;4.15;2.00;;;;;;;17.49;100.00;100078.63;1587121;90;21063;-75
2022/07/19 00:52:20;;;;;;;3.80;2.37;;;;;;;17.48;100.00;100083.98;1585751;90;21121;-75
2022/07/19 00:54:46;;;;;;;5.72;1.75;;;;;;;17.51;100.00;100085.23;1586905;90;21031;-75
2022/07/19 00:57:15;;;;;;;4.20;2.05;;;;;;;17.48;100.00;100077.59;1586714;89;21582;-70
2022/07/19 00:59:43;;;;;;;1.98;1.37;;;;;;;17.52;100.00;100082.09;1587083;89;21102;-73
2022/07/19 01:02:11;;;;;;;1.55;1.20;;;;;;;17.59;100.00;100075.09;1586753;90;21558;-75
2022/07/19 01:04:38;;;;;;;4.97;1.55;;;;;;;17.63;100.00;100069.05;1586527;90;21166;-74
2022/07/19 01:07:05;;;;;;;2.70;1.65;;;;;;;17.68;100.00;100067.98;1586621;89;21032;-73
2022/07/19 01:09:37;;;;;;;2.20;1.65;;;;;;;17.73;100.00;100067.72;1590194;90;21079;-76
2022/07/19 01:12:06;;;;;;;2.62;1.40;;;;;;;17.78;100.00;100070.82;1587000;90;21085;-70
2022/07/19 01:14:35;;;;;;;5.15;1.72;;;;;;;17.82;100.00;100064.20;1586367;90;21597;-75
2022/07/19 01:17:03;;;;;;;1.85;1.40;;;;;;;17.85;100.00;100063.48;1587344;90;21098;-74
2022/07/19 01:19:29;;;;;;;3.87;1.30;;;;;;;17.85;100.00;100060.70;1583897;90;21049;-77
2022/07/19 01:21:58;;;;;;;1.32;1.20;;;;;;;17.82;100.00;100064.78;1590105;89;21070;-77
2022/07/19 01:24:25;;;;;;;2.47;1.22;;;;;;;17.83;100.00;100062.20;1586860;90;21058;-71
2022/07/19 01:26:51;;;;;;;3.33;1.27;;;;;;;17.79;100.00;100057.95;1587040;90;21104;-73
2022/07/19 01:29:18;;;;;;;4.10;1.47;;;;;;;17.75;100.00;100057.85;1584589;90;21596;-73
2022/07/19 01:31:44;;;;;;;1.57;1.32;;;;;;;17.76;100.00;100059.46;1583029;90;21106;-71
2022/07/19 01:34:12;;;;;;;5.40;1.32;;;;;;;17.80;100.00;100058.74;1586718;89;21067;-71
2022/07/19 01:36:41;;;;;;;3.15;1.67;;;;;;;17.81;100.00;100061.77;1586621;90;21015;-72
2022/07/19 01:39:09;;;;;;;4.12;1.50;;;;;;;17.82;100.00;100059.20;1586778;89;21035;-74
2022/07/19 01:41:35;;;;;;;3.80;1.55;;;;;;;17.83;100.00;100056.63;1586218;90;21080;-75
2022/07/19 01:44:02;;;;;;;2.20;1.47;;;;;;;17.79;100.00;100058.53;1586491;89;21832;-72
2022/07/19 01:46:29;;;;;;;5.05;1.40;;;;;;;17.74;100.00;100059.00;1583278;90;21082;-75
2022/07/19 01:48:55;;;;;;;6.28;1.40;;;;;;;17.71;100.00;100061.11;1586876;90;21598;-75
2022/07/19 01:51:21;;;;;;;4.35;1.30;;;;;;;17.74;100.00;100063.18;1586230;89;21067;-76
2022/07/19 01:53:49;;;;;;;2.75;1.37;;;;;;;17.78;100.00;100061.07;1581366;90;21164;-73
2022/07/19 01:56:16;;;;;;;2.98;1.30;;;;;;;17.78;100.00;100058.28;1586920;90;21086;-76
2022/07/19 01:58:42;;;;;;;3.08;1.32;;;;;;;17.78;100.00;100065.25;1586126;90;21090;-73
2022/07/19 02:01:10;;;;;;;2.92;1.82;;;;;;;17.79;100.00;100061.31;1586763;90;21051;-70
2022/07/19 02:03:39;;;;;;;2.30;1.27;;;;;;;17.79;100.00;100061.31;1586600;90;21034;-75
2022/07/19 02:06:05;;;;;;;4.80;1.27;;;;;;;17.78;100.00;100062.47;1587001;88;21142;-75
2022/07/19 02:08:33;;;;;;;5.75;1.75;;;;;;;17.75;100.00;100059.82;1584486;90;21094;-74
2022/07/19 02:13:50;;;;;;;2.27;1.67;;;;;;;17.73;100.00;100062.97;1586519;90;21047;-73
2022/07/19 02:16:17;;;;;;;5.87;1.47;;;;;;;17.74;100.00;100061.78;1586907;89;21002;-74
2022/07/19 02:18:46;;;;;;;2.40;1.35;;;;;;;17.74;100.00;100058.21;1586320;89;21035;-70
2022/07/19 02:21:13;;;;;;;2.37;1.60;;;;;;;17.79;100.00;100061.31;1586140;89;21090;-70
2022/07/19 02:23:40;;;;;;;1.92;1.30;;;;;;;17.83;100.00;100061.63;1585934;90;21092;-72
2022/07/19 02:26:07;;;;;;;7.12;1.47;;;;;;;17.87;100.00;100063.13;1586575;90;21075;-74
2022/07/19 02:28:34;;;;;;;1.80;1.15;;;;;;;17.88;100.00;100068.91;1586807;89;21094;-70
2022/07/19 02:31:01;;;;;;;2.05;1.02;;;;;;;17.93;100.00;100071.44;1586112;90;21171;-74
2022/07/19 02:33:27;;;;;;;4.20;0.90;;;;;;;17.99;100.00;100068.64;1586913;89;21511;-76
2022/07/19 02:35:55;;;;;;;1.77;1.27;;;;;;;18.09;100.00;100067.87;1586944;90;21086;-75
2022/07/19 02:38:23;;;;;;;3.92;1.52;;;;;;;18.13;100.00;100070.21;1586033;90;21150;-74
2022/07/19 02:40:50;;;;;;;4.20;1.60;;;;;;;18.20;100.00;100063.41;1581694;90;21101;-72
2022/07/19 02:43:16;;;;;;;1.47;1.37;;;;;;;18.28;100.00;100062.20;1581627;90;21146;-71
2022/07/19 02:45:43;;;;;;;2.80;1.50;;;;;;;18.28;100.00;100065.80;1581943;89;21099;-74
2022/07/19 02:48:09;;;;;;;13.48;1.27;;;;;;;18.27;100.00;100056.41;1585786;90;21091;-74
2022/07/19 02:50:37;;;;;;;2.10;1.70;;;;;;;18.27;100.00;100054.41;1584966;89;21036;-73
2022/07/19 02:53:03;;;;;;;5.75;1.80;;;;;;;18.31;100.00;100050.31;1586631;90;21578;-72
2022/07/19 02:55:31;;;;;;;4.80;1.75;;;;;;;18.31;100.00;100048.34;1585843;90;21499;-74
2022/07/19 02:57:59;;;;;;;4.50;1.57;;;;;;;18.35;100.00;100051.23;1587157;90;21116;-74
2022/07/19 03:00:25;;;;;;;8.28;2.10;;;;;;;18.40;100.00;100049.56;1586962;89;21111;-75
2022/07/19 03:02:53;;;;;;;2.98;1.40;;;;;;;18.44;100.00;100050.44;1586969;90;21090;-76
2022/07/19 03:05:20;;;;;;;5.45;1.50;;;;;;;18.53;100.00;100050.84;1586532;90;21034;-75
2022/07/19 03:07:49;;;;;;;3.70;1.47;;;;;;;18.59;100.00;100054.41;1587061;89;21080;-77
2022/07/19 03:10:15;;;;;;;6.70;1.25;;;;;;;18.63;100.00;100048.89;1586794;90;21110;-74
2022/07/19 03:12:45;;;;;;;5.35;1.80;;;;;;;18.68;100.00;100051.41;1586987;90;21014;-77
2022/07/19 03:15:11;;;;;;;2.92;1.30;;;;;;;18.73;100.00;100047.55;1586437;90;21597;-71
2022/07/19 03:17:39;;;;;;;3.02;1.50;;;;;;;18.77;100.00;100051.21;1587038;90;21102;-73
2022/07/19 03:20:08;;;;;;;7.08;1.67;;;;;;;18.82;100.00;100050.12;1586591;90;21784;-74
2022/07/19 03:22:36;;;;;;;2.67;1.50;;;;;;;18.85;100.00;100048.80;1585683;89;21562;-75
2022/07/19 03:25:05;;;;;;;1.65;1.25;;;;;;;18.89;100.00;100044.70;1586367;90;21090;-75
2022/07/19 03:27:31;;;;;;;6.33;1.50;;;;;;;18.91;100.00;100036.78;1587180;89;21615;-75
2022/07/19 03:29:58;;;;;;;3.52;1.60;;;;;;;18.93;100.00;100035.83;1586676;89;21175;-75
2022/07/19 03:32:26;;;;;;;3.12;1.30;;;;;;;18.96;100.00;100033.70;1587059;89;21291;-73
2022/07/19 03:34:52;;;;;;;3.33;1.50;;;;;;;19.00;100.00;100033.78;1587012;89;21538;-76
2022/07/19 03:37:19;;;;;;;3.33;1.85;;;;;;;19.01;100.00;100035.39;1587164;90;21073;-75
2022/07/19 03:39:45;;;;;;;3.92;1.60;;;;;;;19.02;100.00;100031.41;1586792;90;21300;-74
2022/07/19 03:42:12;;;;;;;3.75;1.80;;;;;;;19.05;100.00;100032.68;1586907;90;21077;-74
2022/07/19 03:44:40;;;;;;;3.30;1.80;;;;;;;19.11;100.00;100035.42;1587016;90;21552;-71
2022/07/19 03:47:07;;;;;;;5.28;2.50;;;;;;;19.16;100.00;100037.11;1586579;90;21538;-75
2022/07/19 03:49:36;;;;;;;7.25;2.52;;;;;;;19.21;100.00;100038.22;1586903;90;21040;-77
2022/07/19 03:52:03;;;;;;;5.60;1.20;;;;;;;19.25;100.00;100036.32;1587364;90;21050;-72
2022/07/19 03:54:31;;;;;;;5.10;1.60;;;;;;;19.31;100.00;100039.64;1583887;90;21054;-74
2022/07/19 03:56:58;;;;;;;6.10;1.65;;;;;;;19.33;100.00;100038.08;1586250;90;21178;-74
2022/07/19 03:59:24;;;;;;;7.92;1.65;;;;;;;19.39;100.00;100048.96;1586945;90;21087;-73
2022/07/19 04:01:52;;;;;;;5.08;1.77;;;;;;;19.39;100.00;100046.98;1586654;89;21046;-75
2022/07/19 04:04:20;;;;;;;8.13;1.67;;;;;;;19.45;100.00;100038.52;1587102;89;21043;-72
2022/07/19 04:06:47;;;;;;;3.30;1.52;;;;;;;;;;1586899;90;21051;-75
2022/07/19 04:09:13;;;;;;;2.37;1.37;;;;;;;19.55;100.00;100046.89;1601383;89;22142;-74
2022/07/19 04:11:41;;;;;;;2.25;1.40;;;;;;;19.59;100.00;100046.96;1599774;89;21106;-76
2022/07/19 04:14:08;;;;;;;4.12;1.52;;;;;;;19.64;100.00;100045.84;1603771;89;21093;-74
2022/07/19 04:16:35;;;;;;;3.30;1.50;;;;;;;19.66;100.00;100044.89;1585384;90;21228;-73
2022/07/19 04:19:02;;;;;;;3.85;1.60;;;;;;;19.70;100.00;100044.39;1563684;89;21084;-76
2022/07/19 04:21:30;;;;;;;3.98;1.45;;;;;;;19.74;100.00;100038.88;1580885;89;21312;-73
2022/07/19 04:23:56;;;;;;;5.72;1.42;;;;;;;19.77;100.00;100034.72;1599424;89;21042;-74
2022/07/19 04:26:23;;;;;;;4.20;2.00;;;;;;;19.80;100.00;100040.98;1561863;90;21881;-70
2022/07/19 04:28:49;;;;;;;9.68;2.95;;;;;;;19.83;100.00;100033.84;1570923;90;21547;-74
2022/07/19 04:31:16;;;;;;;8.15;3.55;;;;;;;19.88;100.00;100041.10;1588418;90;21090;-74
2022/07/19 04:33:43;;;;;;;8.53;3.30;;;;;;;19.90;100.00;100039.56;1580944;90;21210;-68
2022/07/19 04:36:12;;;;;;;10.45;5.17;;;;;;;19.95;100.00;100041.23;1572019;90;21602;-71
2022/07/19 04:38:39;;;;;;;14.38;4.22;;;;;;;20.00;100.00;100041.52;1574797;90;21131;-70
2022/07/19 04:41:05;;;;;;;7.60;3.35;;;;;;;20.03;100.00;100036.56;1569832;90;21161;-71
2022/07/19 04:43:32;;;;;;;11.80;3.62;;;;;;;20.13;100.00;100044.37;1573413;89;21147;-71
2022/07/19 04:45:59;;;;;;;8.00;3.45;;;;;;;20.12;100.00;100041.95;1570686;90;21896;-77
2022/07/19 04:48:27;;;;;;;9.23;5.12;;;;;;;20.12;100.00;100042.77;1577522;90;21056;-75
2022/07/19 04:50:54;;;;;;;8.68;5.15;;;;;;;20.18;100.00;100048.25;1573304;90;21533;-73
2022/07/19 04:53:20;;;;;;;11.80;5.28;;;;;;;20.21;100.00;100052.89;1583994;90;21600;-76
2022/07/19 04:55:47;;;;;;;10.80;4.20;;;;;;;20.25;100.00;100050.98;1583132;90;21594;-76
2022/07/19 04:58:14;;;;;;;5.70;2.52;;;;;;;20.28;100.00;100058.00;1571396;90;21316;-75
2022/07/19 05:00:41;;;;;;;4.62;2.00;;;;;;;20.33;100.00;100058.30;1576770;90;21111;-77
2022/07/19 05:03:09;;;;;;;5.45;1.90;;;;;;;20.37;100.00;100061.95;1570113;90;21108;-73
2022/07/19 05:05:35;;;;;;;5.87;2.27;;;;;;;20.43;100.00;100054.88;1571098;90;21588;-75
2022/07/19 05:08:02;;;;;;;6.28;2.12;;;;;;;20.48;100.00;100067.73;1570142;90;21036;-73
2022/07/19 05:10:29;;;;;;;3.27;2.22;;;;;;;20.49;100.00;100062.95;1571845;90;21108;-73
2022/07/19 05:12:57;;;;;;;5.97;2.47;;;;;;;20.49;100.00;100065.75;1570766;90;21086;-73
2022/07/19 05:15:25;;;;;;;6.20;2.92;;;;;;;20.53;100.00;100062.41;1579458;88;21675;-72
2022/07/19 05:17:52;;;;;;;6.45;2.55;;;;;;;20.59;100.00;100069.91;1589146;88;21048;-74
2022/07/19 05:20:19;;;;;;;6.67;2.83;;;;;;;20.65;100.00;100068.39;1572510;90;21552;-77
2022/07/19 05:22:46;;;;;;;5.42;2.00;;;;;;;20.73;100.00;100067.89;1583461;90;21161;-77
2022/07/19 05:25:12;;;;;;;2.67;1.65;;;;;;;20.79;100.00;100065.00;1579349;90;21114;-75
2022/07/19 05:27:40;;;;;;;6.28;1.90;;;;;;;20.89;100.00;100062.14;1580308;89;21094;-76
2022/07/19 05:30:09;;;;;;;4.33;1.90;;;;;;;20.97;100.00;100054.67;1603972;88;21083;-74
2022/07/19 05:32:36;;;;;;;6.22;1.80;;;;;;;21.02;100.00;100058.54;1612040;87;21501;-74
2022/07/19 05:35:03;;;;;;;3.40;1.57;;;;;;;21.12;100.00;100055.08;1604340;88;21168;-76
2022/07/19 05:37:31;;;;;;;3.87;1.90;;;;;;;21.22;100.00;100060.60;1611058;88;21135;-75
2022/07/19 05:39:58;;;;;;;3.47;1.87;;;;;;;21.29;100.00;100062.69;1613235;88;21064;-76
2022/07/19 05:42:25;;;;;;;5.15;2.27;;;;;;;21.35;100.00;100065.97;1616395;88;21028;-74
2022/07/19 05:44:52;;;;;;;9.70;2.35;;;;;;;21.39;100.00;100064.03;1616679;88;21100;-75
2022/07/19 05:47:19;;;;;;;2.92;1.50;;;;;;;21.46;100.00;100063.31;1615552;88;21088;-71
2022/07/19 05:49:46;;;;;;;4.87;2.10;;;;;;;21.56;100.00;100064.63;1608106;88;21055;-72
2022/07/19 05:52:14;;;;;;;5.60;1.70;;;;;;;21.62;100.00;100063.09;1614441;88;21541;-75
2022/07/19 05:54:41;;;;;;;5.30;2.30;;;;;;;21.66;100.00;100062.54;1617272;87;21161;-73
2022/07/19 05:57:07;;;;;;;2.02;1.65;;;;;;;21.61;100.00;100057.28;1617099;87;21124;-71
2022/07/19 05:59:35;;;;;;;3.47;2.02;;;;;;;21.73;100.00;100061.81;1615170;88;21573;-68
2022/07/19 06:02:03;;;;;;;3.85;2.12;;;;;;;21.73;100.00;100060.41;1615022;87;21123;-76
2022/07/19 06:04:34;;;;;;;3.52;1.65;;;;;;;21.76;100.00;100063.26;1614934;88;21043;-73
2022/07/19 06:06:59;;;;;;;7.75;1.90;;;;;;;21.72;100.00;100060.19;1613642;88;21044;-71
2022/07/19 06:09:25;;;;;;;8.75;2.00;;;;;;;21.71;100.00;100062.20;1615446;88;21163;-70
2022/07/19 06:11:52;;;;;;;8.35;2.22;;;;;;;21.81;100.00;100061.31;1613004;88;21945;-68
2022/07/19 06:14:20;;;;;;;5.30;2.45;;;;;;;21.82;100.00;100056.72;1615090;88;21544;-66
2022/07/19 06:16:47;;;;;;;4.47;2.40;;;;;;;21.86;100.00;100063.19;1607734;88;21151;-71
2022/07/19 06:19:16;;;;;;;3.87;1.85;;;;;;;21.89;100.00;100056.80;1615547;88;21068;-72
2022/07/19 06:21:43;;;;;;;4.17;2.12;;;;;;;21.89;100.00;100058.20;1602562;88;21087;-73
2022/07/19 06:24:11;;;;;;;6.42;2.20;;;;;;;21.93;100.00;100051.81;1614137;87;21192;-70
2022/07/19 06:26:38;;;;;;;3.95;1.82;;;;;;;21.95;100.00;100050.26;1610914;87;21572;-72
2022/07/19 06:29:04;;;;;;;4.00;2.20;;;;;;;21.87;100.00;100047.17;1616344;87;21063;-75
2022/07/19 06:35:08;;;;;;;8.03;2.35;;;;;;;21.88;100.00;100045.97;1623605;86;21560;-76
2022/07/19 06:37:35;;;;;;;;;;;;;;;21.87;100.00;100036.74;1626930;86;21789;-69
2022/07/19 06:40:01;;;;;;;6.22;1.82;;;;;;;21.95;100.00;100036.82;1620907;86;20203;-75
2022/07/19 06:42:30;;;;;;;4.20;1.98;;;;;;;21.94;100.00;100033.81;1626836;86;21099;-73
2022/07/19 06:44:58;;;;;;;5.78;2.70;;;;;;;21.96;100.00;100034.22;1627652;86;21072;-69
2022/07/19 06:47:25;;;;;;;8.38;2.15;;;;;;;22.00;100.00;100038.69;1623315;88;21527;-71
2022/07/19 06:49:51;;;;;;;6.00;2.20;;;;;;;22.07;100.00;100032.34;1633513;86;21104;-73
2022/07/19 06:52:20;;;;;;;7.15;2.33;;;;;;;22.10;100.00;100030.16;1606587;87;21079;-74
2022/07/19 06:54:48;;;;;;;7.72;2.00;;;;;;;22.21;100.00;100026.64;1610934;88;21614;-75
2022/07/19 06:57:15;;;;;;;4.17;1.77;;;;;;;22.26;100.00;100034.70;1622493;86;21066;-74
2022/07/19 06:59:41;;;;;;;5.42;1.90;;;;;;;22.30;100.00;100042.53;1625445;86;21043;-74
2022/07/19 07:02:10;;;;;;;5.12;2.02;;;;;;;22.32;100.00;100042.14;1622023;88;21079;-70
2022/07/19 07:04:37;;;;;;;3.55;1.82;;;;;;;22.29;100.00;100040.93;1622222;88;21052;-74
2022/07/19 07:07:03;;;;;;;5.75;1.87;;;;;;;22.29;100.00;100040.12;1624110;88;21074;-69
2022/07/19 07:09:30;;;;;;;2.95;1.90;;;;;;;22.32;100.00;100040.15;1625001;88;21023;-70
2022/07/19 07:11:56;;;;;;;5.70;2.12;;;;;;;22.40;100.00;100040.22;1618324;86;21513;-74
2022/07/19 07:14:23;;;;;;;4.45;2.10;;;;;;;22.46;100.00;100041.45;1622847;86;21095;-74
2022/07/19 07:16:53;;;;;;;8.08;2.60;;;;;;;22.51;100.00;100043.90;1625313;87;21047;-73
2022/07/19 07:19:19;;;;;;;4.25;2.10;;;;;;;22.57;100.00;100051.38;1620174;86;21107;-74
2022/07/19 07:21:46;;;;;;;3.30;2.00;;;;;;;22.59;100.00;100050.36;1615781;88;21084;-69
2022/07/19 07:24:14;;;;;;;5.78;1.90;;;;;;;22.63;100.00;100056.84;1612405;88;21104;-75
2022/07/19 07:26:41;;;;;;;4.53;2.00;;;;;;;22.67;100.00;100060.47;1612917;88;21540;-71
2022/07/19 07:29:09;;;;;;;5.50;2.00;;;;;;;22.71;100.00;100059.91;1620322;86;21107;-74
2022/07/19 07:31:36;;;;;;;3.22;1.75;;;;;;;22.79;100.00;100065.58;1643573;87;21032;-69
2022/07/19 07:34:04;;;;;;;3.00;1.72;;;;;;;22.78;100.00;100065.36;1634500;87;21071;-67
2022/07/19 07:36:31;;;;;;;5.83;2.40;;;;;;;22.79;100.00;100066.37;1629280;87;21075;-70
2022/07/19 07:38:59;;;;;;;6.45;2.47;;;;;;;22.79;100.00;100069.17;1632070;86;21172;-67
2022/07/19 07:41:27;;;;;;;6.67;2.70;;;;;;;22.79;100.00;100071.98;1638657;87;21564;-66
2022/07/19 07:43:54;;;;;;;4.95;2.27;;;;;;;22.81;100.00;100070.22;1631843;87;21071;-73
2022/07/19 07:46:20;;;;;;;3.92;1.72;;;;;;;22.77;100.00;100071.59;1635151;87;21069;-71
2022/07/19 07:48:47;;;;;;;5.10;1.77;;;;;;;22.76;100.00;100069.17;1635191;87;21080;-75
2022/07/19 07:51:13;;;;;;;5.40;2.12;;;;;;;22.75;100.00;100072.58;1630651;87;21778;-72
2022/07/19 07:53:40;;;;;;;7.72;2.10;;;;;;;22.75;100.00;100076.78;1641727;87;21532;-74
2022/07/19 07:56:09;;;;;;;7.80;1.98;;;;;;;22.70;100.00;100078.55;1643889;87;21088;-67
2022/07/19 07:58:37;;;;;;;2.42;1.57;;;;;;;22.71;100.00;100077.34;1641833;87;21480;-68
2022/07/19 08:01:04;;;;;;;4.72;1.77;;;;;;;22.69;100.00;100076.95;1642496;87;21086;-66
2022/07/19 08:03:31;;;;;;;2.98;1.85;;;;;;;22.67;100.00;100075.13;1639230;87;21099;-69
2022/07/19 08:05:58;;;;;;;2.55;1.42;;;;;;;22.67;100.00;100080.74;1637383;87;21028;-71
2022/07/19 08:08:26;;;;;;;3.85;1.75;;;;;;;22.61;100.00;100074.67;1641515;87;21076;-70
2022/07/19 08:10:55;;;;;;;5.60;2.05;;;;;;;22.59;100.00;100079.84;1640061;87;21563;-69
2022/07/19 08:13:22;;;;;;;2.95;1.55;;;;;;;22.59;100.00;100079.25;1633218;87;21079;-72
2022/07/19 08:15:50;;;;;;;3.58;1.90;;;;;;;22.59;100.00;100082.05;1640333;87;21111;-73
2022/07/19 08:18:17;;;;;;;4.55;2.12;;;;;;;22.58;100.00;100073.44;1643590;87;21012;-70
2022/07/19 08:20:43;;;;;;;6.67;2.15;;;;;;;22.65;100.00;100066.28;1655230;85;21075;-71
2022/07/19 08:23:10;;;;;;;4.92;2.65;;;;;;;22.72;100.00;100067.75;1639906;85;21520;-68
2022/07/19 08:25:36;;;;;;;4.80;2.10;;;;;;;22.81;100.00;100067.41;1645748;85;21512;-70
2022/07/19 08:28:03;;;;;;;6.20;2.02;;;;;;;22.85;100.00;100069.03;1644713;85;21981;-72
2022/07/19 08:30:32;;;;;;;4.62;2.15;;;;;;;22.89;100.00;100067.66;1646912;85;21500;-70
2022/07/19 08:33:00;;;;;;;5.30;2.17;;;;;;;22.91;100.00;100068.05;1658134;85;21054;-73
2022/07/19 08:35:27;;;;;;;4.60;2.10;;;;;;;22.95;100.00;100069.48;1653848;85;21043;-73
2022/07/19 08:37:54;;;;;;;8.85;1.62;;;;;;;23.00;100.00;100067.70;1648772;86;21090;-70
2022/07/19 08:40:24;;;;;;;8.25;2.35;;;;;;;23.07;100.00;100071.15;1650104;86;21575;-73
2022/07/19 08:42:52;;;;;;;6.70;2.05;;;;;;;23.14;100.00;100064.76;1648380;86;21485;-74
2022/07/19 08:45:19;;;;;;;4.72;2.10;;;;;;;23.16;100.00;100060.96;1654250;85;21102;-69
2022/07/19 08:47:46;;;;;;;3.55;1.92;;;;;;;23.19;100.00;100065.79;1657566;85;20999;-72
2022/07/19 08:50:12;;;;;;;6.20;1.80;;;;;;;23.21;100.00;100061.99;1655632;86;21008;-72
2022/07/19 08:52:39;;;;;;;3.08;1.90;;;;;;;23.21;100.00;100061.99;1659533;85;21146;-72
2022/07/19 08:55:10;;;;;;;5.92;2.30;;;;;;;23.21;100.00;100058.59;1648675;86;21059;-73
2022/07/19 09:00:22;;;;;;;5.05;2.17;;;;;;;23.24;100.00;100062.60;1654538;85;21058;-73
2022/07/19 09:02:58;;;;;;;3.12;1.70;;;;;;;23.22;100.00;100058.78;1650735;85;21103;-70
2022/07/19 09:05:26;;;;;;;5.62;2.00;;;;;;;23.21;100.00;100059.19;1656951;85;21182;-72
2022/07/19 09:08:13;;;;;;;4.97;2.47;;;;;;;23.19;100.00;100056.77;1654346;84;21076;-72
2022/07/19 09:10:44;;;;;;;3.58;2.02;;;;;;;23.22;100.00;100060.78;1649832;86;21122;-66
2022/07/19 09:13:13;;;;;;;3.08;1.72;;;;;;;23.26;100.00;100063.02;1658002;85;21138;-72
2022/07/19 09:15:53;;;;;;;5.47;2.40;;;;;;;23.29;100.00;100056.61;1655394;85;20988;-73
2022/07/19 09:18:27;;;;;;;6.42;1.85;;;;;;;23.30;100.00;100060.23;1657045;85;21614;-68
2022/07/19 09:21:06;;;;;;;4.70;1.80;;;;;;;23.31;100.00;100061.83;1650592;86;21079;-76
2022/07/19 09:23:33;;;;;;;3.00;1.80;;;;;;;23.32;100.00;100057.84;1651836;85;21148;-74
2022/07/19 09:26:04;;;;;;;3.83;1.85;;;;;;;23.29;100.00;100056.61;1653493;85;20996;-74
2022/07/19 09:28:35;;;;;;;4.28;2.30;;;;;;;23.27;100.00;100055.41;1659134;85;21054;-77
2022/07/19 09:31:02;;;;;;;6.75;2.35;;;;;;;23.25;100.00;100059.20;1612388;86;21623;-72
2022/07/19 09:33:32;;;;;;;3.58;1.80;;;;;;;23.17;100.00;100063.97;1618221;86;21058;-71
2022/07/19 09:36:01;;;;;;;4.30;1.87;;;;;;;23.06;100.00;100066.15;1618689;88;22069;-71
2022/07/19 09:38:36;;;;;;;5.03;1.82;;;;;;;22.92;100.00;100068.86;1613454;88;21055;-74
2022/07/19 09:41:15;;;;;;;4.70;2.17;;;;;;;22.71;100.00;100061.91;1617846;88;23040;-71
2022/07/19 09:43:58;;;;;;;2.67;2.15;;;;;;;22.58;100.00;100058.00;1616740;88;22463;-72
2022/07/19 09:46:39;;;;;;;;;;;;;;;22.65;100.00;100056.45;1610614;88;21548;-71
2022/07/19 09:49:12;;;;;;;4.42;2.00;;;;;;;22.76;100.00;100055.13;1606880;88;20232;-77
2022/07/19 09:51:43;;;;;;;3.80;2.00;;;;;;;22.85;100.00;100063.41;1612637;86;21039;-73
2022/07/19 09:54:15;;;;;;;10.78;2.47;;;;;;;22.96;100.00;100057.06;1614115;88;21016;-74
2022/07/19 09:56:44;;;;;;;7.42;2.55;;;;;;;23.05;100.00;100058.09;1615202;86;21071;-74
2022/07/19 09:59:11;;;;;;;4.00;2.30;;;;;;;23.23;100.00;100050.55;1606470;88;21139;-74
2022/07/19 10:01:40;;;;;;;4.30;1.85;;;;;;;23.35;100.00;100049.39;1614030;87;21064;-74
2022/07/19 10:04:12;;;;;;;5.45;2.20;;;;;;;23.49;100.00;100052.08;1605674;86;21024;-68
2022/07/19 10:06:40;;;;;;;4.20;2.25;;;;;;;23.59;100.00;100049.91;1610286;87;21110;-74
2022/07/19 10:09:09;;;;;;;5.33;2.30;;;;;;;23.66;100.00;100044.12;1607267;88;21523;-77
2022/07/19 10:11:36;;;;;;;4.45;1.72;;;;;;;23.73;100.00;100046.14;1615227;86;21064;-76
2022/07/19 10:14:03;;;;;;;2.60;1.80;;;;;;;23.86;100.00;100040.93;1608652;87;21370;-75
2022/07/19 10:17:07;;;;;;;1.70;1.50;;;;;;;23.99;100.00;100036.52;1608250;87;21301;-71
2022/07/19 10:19:42;;;;;;;3.85;1.57;;;;;;;24.11;100.00;100031.70;1604658;88;21107;-75
2022/07/19 10:22:19;;;;;;;3.20;1.35;;;;;;;24.21;100.00;100030.15;1611716;88;22179;-75
2022/07/19 10:24:58;;;;;;;2.58;1.50;;;;;;;24.28;100.00;100020.27;1615525;86;21597;-72
2022/07/19 10:27:36;;;;;;;5.60;1.60;;;;;;;24.34;100.00;100014.46;1603091;88;21059;-70
2022/07/19 10:30:20;;;;;;;2.52;1.90;;;;;;;24.48;100.00;100013.62;1622194;87;21103;-73
2022/07/19 10:32:48;;;;;;;2.95;1.92;;;;;;;24.50;100.00;100008.39;1644558;85;21080;-75
2022/07/19 10:35:28;;;;;;;3.60;2.00;;;;;;;24.55;100.00;100009.39;1645195;85;22265;-74
2022/07/19 10:38:04;;;;;;;5.50;2.27;;;;;;;24.73;100.00;100004.33;1642777;85;21048;-74
2022/07/19 10:40:50;;;;;;;3.37;1.65;;;;;;;24.90;100.00;100004.08;1641433;85;21104;-73
2022/07/19 10:43:18;;;;;;;5.17;2.50;;;;;;;25.07;100.00;99993.17;1643994;85;21008;-76
2022/07/19 10:45:59;;;;;;;5.08;1.82;;;;;;;25.14;100.00;99987.52;1646216;85;21091;-66
2022/07/19 10:48:41;;;;;;;3.42;2.15;;;;;;;25.11;100.00;99986.12;1644514;85;21060;-73
2022/07/19 10:51:14;;;;;;;6.33;2.45;;;;;;;25.07;100.00;99988.95;1642184;85;21071;-76
2022/07/19 10:53:47;;;;;;;3.58;2.05;;;;;;;24.98;100.00;99985.75;1647387;85;21635;-73
2022/07/19 10:56:21;;;;;;;3.15;1.90;;;;;;;24.86;100.00;99984.16;1645385;85;21650;-76
2022/07/19 10:58:55;;;;;;;4.08;2.05;;;;;;;24.76;100.00;99984.39;1642975;85;21540;-70
2022/07/19 11:01:23;;;;;;;3.92;2.10;;;;;;;24.67;100.00;99984.22;1642236;85;22101;-70
2022/07/19 11:03:51;;;;;;;3.67;1.67;;;;;;;24.55;100.00;99987.45;1641996;85;22104;-77
2022/07/19 11:06:25;;;;;;;4.05;2.08;;;;;;;24.41;100.00;99984.87;1645162;85;21017;-73
2022/07/19 11:08:58;;;;;;;6.28;2.37;;;;;;;24.30;100.00;99982.09;1644428;85;21402;-76
2022/07/19 11:11:28;;;;;;;4.15;2.62;;;;;;;24.23;100.00;99986.91;1643793;85;21123;-74
2022/07/19 11:13:57;;;;;;;6.30;2.40;;;;;;;24.16;100.00;99986.27;1634902;87;21270;-77
2022/07/19 11:16:28;;;;;;;3.95;1.70;;;;;;;24.15;100.00;99983.27;1631126;87;21071;-70
2022/07/19 11:19:07;;;;;;;3.60;2.00;;;;;;;24.22;100.00;99985.30;1636722;87;21565;-75
2022/07/19 11:21:36;;;;;;;3.20;1.60;;;;;;;24.27;100.00;99985.72;1633095;87;21056;-74
2022/07/19 11:24:05;;;;;;;3.45;1.57;;;;;;;24.45;100.00;99984.09;1627356;87;21769;-72
2022/07/19 11:26:41;;;;;;;3.37;1.50;;;;;;;24.64;100.00;99980.00;1627402;87;21564;-72
2022/07/19 11:29:10;;;;;;;6.08;1.98;;;;;;;24.83;100.00;99969.48;1627689;87;21036;-70
2022/07/19 11:31:36;;;;;;;3.25;1.47;;;;;;;24.96;100.00;99967.06;1641938;86;21063;-73
2022/07/19 11:34:08;;;;;;;3.90;1.92;;;;;;;25.00;100.00;99957.38;1550618;89;21086;-75